sensor_id;sensor_type;location;lat;lon;timestamp;temperature;humidity
18317;DHT22;9284;52.298;21.164;2022-08-20T03:17:10;20.20;1.00
18317;DHT22;9284;52.298;21.164;2022-08-20T03:19:38;20.20;1.00
18317;DHT22;9284;52.298;21.164;2022-08-20T03:22:06;20.20;1.00
18317;DHT22;9284;52.298;21.164;2022-08-20T03:24:34;20.10;1.00
18317;DHT22;9284;52.298;21.164;2022-08-20T03:27:03;20.10;1.00
18317;DHT22;9284;52.298;21.164;2022-08-20T03:29:33;20.10;1.00
18317;DHT22;9284;52.298;21.164;2022-08-20T03:32:01;20.10;1.00
18317;DHT22;9284;52.298;21.164;2022-08-20T03:34:34;20.10;1.00
18317;DHT22;9284;52.298;21.164;2022-08-20T03:37:03;20.10;1.00
18317;DHT22;9284;52.298;21.164;2022-08-20T03:39:31;20.10;1.00
18317;DHT22;9284;52.298;21.164;2022-08-20T03:41:59;20.10;1.00
18317;DHT22;9284;52.298;21.164;2022-08-20T03:44:28;20.20;1.00
18317;DHT22;9284;52.298;21.164;2022-08-20T03:46:56;20.10;1.00
18317;DHT22;9284;52.298;21.164;2022-08-20T03:49:24;20.20;1.00
18317;DHT22;9284;52.298;21.164;2022-08-20T03:51:53;20.40;1.00
18317;DHT22;9284;52.298;21.164;2022-08-20T03:54:24;20.30;1.00
18317;DHT22;9284;52.298;21.164;2022-08-20T03:56:58;20.40;99.90
18317;DHT22;9284;52.298;21.164;2022-08-20T03:59:28;20.40;99.90
18317;DHT22;9284;52.298;21.164;2022-08-20T04:01:59;20.50;99.90
18317;DHT22;9284;52.298;21.164;2022-08-20T04:04:27;20.50;99.90
18317;DHT22;9284;52.298;21.164;2022-08-20T04:06:56;20.60;99.90
18317;DHT22;9284;52.298;21.164;2022-08-20T04:09:25;20.60;99.90
18317;DHT22;9284;52.298;21.164;2022-08-20T04:11:53;20.70;99.90
18317;DHT22;9284;52.298;21.164;2022-08-20T04:14:26;20.80;99.90
18317;DHT22;9284;52.298;21.164;2022-08-20T04:16:55;20.90;99.90
18317;DHT22;9284;52.298;21.164;2022-08-20T04:19:24;20.90;25.90
18317;DHT22;9284;52.298;21.164;2022-08-20T04:21:58;21.00;1.00
18317;DHT22;9284;52.298;21.164;2022-08-20T04:24:26;21.10;24.10
18317;DHT22;9284;52.298;21.164;2022-08-20T04:26:59;21.20;40.80
18317;DHT22;9284;52.298;21.164;2022-08-20T04:29:29;21.20;1.00
18317;DHT22;9284;52.298;21.164;2022-08-20T04:32:02;21.20;1.00
18317;DHT22;9284;52.298;21.164;2022-08-20T04:34:32;21.20;1.00
18317;DHT22;9284;52.298;21.164;2022-08-20T04:37:02;21.20;1.00
18317;DHT22;9284;52.298;21.164;2022-08-20T04:39:30;21.20;34.00
18317;DHT22;9284;52.298;21.164;2022-08-20T04:41:58;21.30;1.60
18317;DHT22;9284;52.298;21.164;2022-08-20T04:44:26;21.30;12.00
18317;DHT22;9284;52.298;21.164;2022-08-20T04:46:54;21.30;1.00
18317;DHT22;9284;52.298;21.164;2022-08-20T04:49:23;21.40;1.00
18317;DHT22;9284;52.298;21.164;2022-08-20T04:51:53;21.50;1.00
18317;DHT22;9284;52.298;21.164;2022-08-20T04:54:23;21.60;1.00
18317;DHT22;9284;52.298;21.164;2022-08-20T04:56:51;21.70;1.00
18317;DHT22;9284;52.298;21.164;2022-08-20T04:59:19;21.80;1.00
18317;DHT22;9284;52.298;21.164;2022-08-20T05:01:47;21.90;1.00
18317;DHT22;9284;52.298;21.164;2022-08-20T05:04:15;21.80;99.90
18317;DHT22;9284;52.298;21.164;2022-08-20T05:06:43;22.00;99.90
18317;DHT22;9284;52.298;21.164;2022-08-20T05:09:12;22.00;1.00
18317;DHT22;9284;52.298;21.164;2022-08-20T05:11:41;22.00;1.00
18317;DHT22;9284;52.298;21.164;2022-08-20T05:14:09;22.10;99.90
18317;DHT22;9284;52.298;21.164;2022-08-20T05:16:38;22.00;99.90
18317;DHT22;9284;52.298;21.164;2022-08-20T05:19:09;22.10;99.90
18317;DHT22;9284;52.298;21.164;2022-08-20T05:21:38;22.00;99.90
18317;DHT22;9284;52.298;21.164;2022-08-20T05:24:07;22.00;99.90
18317;DHT22;9284;52.298;21.164;2022-08-20T05:26:36;22.10;99.90
18317;DHT22;9284;52.298;21.164;2022-08-20T05:29:05;22.00;99.90
18317;DHT22;9284;52.298;21.164;2022-08-20T05:31:34;22.00;99.90
18317;DHT22;9284;52.298;21.164;2022-08-20T05:34:03;22.00;99.90
18317;DHT22;9284;52.298;21.164;2022-08-20T05:36:36;22.10;99.90
18317;DHT22;9284;52.298;21.164;2022-08-20T05:39:06;22.10;99.90
18317;DHT22;9284;52.298;21.164;2022-08-20T05:41:34;22.10;99.90
18317;DHT22;9284;52.298;21.164;2022-08-20T05:44:05;22.20;99.90
18317;DHT22;9284;52.298;21.164;2022-08-20T05:46:37;22.30;99.90
18317;DHT22;9284;52.298;21.164;2022-08-20T05:49:07;22.30;1.00
18317;DHT22;9284;52.298;21.164;2022-08-20T05:51:36;22.40;99.90
18317;DHT22;9284;52.298;21.164;2022-08-20T05:54:05;22.50;74.60
18317;DHT22;9284;52.298;21.164;2022-08-20T05:56:34;22.50;99.90
18317;DHT22;9284;52.298;21.164;2022-08-20T05:59:05;22.60;99.90
18317;DHT22;9284;52.298;21.164;2022-08-20T06:01:36;22.80;1.00
18317;DHT22;9284;52.298;21.164;2022-08-20T06:04:04;22.80;1.00
18317;DHT22;9284;52.298;21.164;2022-08-20T06:06:51;22.80;1.00
18317;DHT22;9284;52.298;21.164;2022-08-20T06:09:22;22.80;1.00
18317;DHT22;9284;52.298;21.164;2022-08-20T06:11:59;22.80;99.90
18317;DHT22;9284;52.298;21.164;2022-08-20T06:14:29;22.90;99.90
18317;DHT22;9284;52.298;21.164;2022-08-20T06:17:05;23.00;1.00
18317;DHT22;9284;52.298;21.164;2022-08-20T06:19:34;23.10;99.90
18317;DHT22;9284;52.298;21.164;2022-08-20T06:22:04;23.20;99.90
18317;DHT22;9284;52.298;21.164;2022-08-20T06:24:51;23.30;99.90
18317;DHT22;9284;52.298;21.164;2022-08-20T06:27:20;23.40;99.90
18317;DHT22;9284;52.298;21.164;2022-08-20T06:29:49;23.50;99.90
18317;DHT22;9284;52.298;21.164;2022-08-20T06:32:20;23.60;1.00
18317;DHT22;9284;52.298;21.164;2022-08-20T06:34:59;23.50;99.90
18317;DHT22;9284;52.298;21.164;2022-08-20T06:37:30;23.60;99.90
18317;DHT22;9284;52.298;21.164;2022-08-20T06:40:00;23.60;99.90
18317;DHT22;9284;52.298;21.164;2022-08-20T06:42:30;23.70;99.90
18317;DHT22;9284;52.298;21.164;2022-08-20T06:45:00;23.90;99.90
18317;DHT22;9284;52.298;21.164;2022-08-20T06:47:31;24.00;99.90
18317;DHT22;9284;52.298;21.164;2022-08-20T06:49:59;24.10;1.00
18317;DHT22;9284;52.298;21.164;2022-08-20T06:52:28;24.20;69.00
18317;DHT22;9284;52.298;21.164;2022-08-20T06:55:16;24.40;99.90
18317;DHT22;9284;52.298;21.164;2022-08-20T06:57:44;24.50;1.00
18317;DHT22;9284;52.298;21.164;2022-08-20T07:00:17;24.60;1.00
18317;DHT22;9284;52.298;21.164;2022-08-20T07:02:45;24.70;99.90
18317;DHT22;9284;52.298;21.164;2022-08-20T07:05:14;24.60;1.00
18317;DHT22;9284;52.298;21.164;2022-08-20T07:07:44;24.40;99.90
18317;DHT22;9284;52.298;21.164;2022-08-20T07:10:14;24.40;99.90
18317;DHT22;9284;52.298;21.164;2022-08-20T07:12:42;24.30;99.90
18317;DHT22;9284;52.298;21.164;2022-08-20T07:15:15;24.30;1.00
18317;DHT22;9284;52.298;21.164;2022-08-20T07:17:48;24.30;1.00
18317;DHT22;9284;52.298;21.164;2022-08-20T07:20:17;24.30;81.50
18317;DHT22;9284;52.298;21.164;2022-08-20T07:22:47;24.40;1.00
18317;DHT22;9284;52.298;21.164;2022-08-20T07:25:18;24.40;99.90
18317;DHT22;9284;52.298;21.164;2022-08-20T07:27:48;24.50;99.90
18317;DHT22;9284;52.298;21.164;2022-08-20T07:30:19;24.80;99.90
18317;DHT22;9284;52.298;21.164;2022-08-20T07:33:23;24.90;99.90
18317;DHT22;9284;52.298;21.164;2022-08-20T07:35:54;24.90;99.90
18317;DHT22;9284;52.298;21.164;2022-08-20T07:38:24;25.40;1.00
18317;DHT22;9284;52.298;21.164;2022-08-20T07:40:55;25.70;1.00
18317;DHT22;9284;52.298;21.164;2022-08-20T07:43:24;25.70;1.00
18317;DHT22;9284;52.298;21.164;2022-08-20T07:45:56;25.60;99.90
18317;DHT22;9284;52.298;21.164;2022-08-20T07:48:28;25.60;1.00
18317;DHT22;9284;52.298;21.164;2022-08-20T07:51:00;25.60;99.90
18317;DHT22;9284;52.298;21.164;2022-08-20T07:53:29;25.80;1.00
18317;DHT22;9284;52.298;21.164;2022-08-20T07:56:05;25.70;95.80
18317;DHT22;9284;52.298;21.164;2022-08-20T07:58:35;26.30;1.00
18317;DHT22;9284;52.298;21.164;2022-08-20T08:01:06;26.70;1.00
18317;DHT22;9284;52.298;21.164;2022-08-20T08:03:34;27.10;1.00
18317;DHT22;9284;52.298;21.164;2022-08-20T08:06:17;26.80;1.00
18317;DHT22;9284;52.298;21.164;2022-08-20T08:09:00;26.80;67.00
18317;DHT22;9284;52.298;21.164;2022-08-20T08:11:31;26.90;99.90
18317;DHT22;9284;52.298;21.164;2022-08-20T08:14:00;26.50;99.90
18317;DHT22;9284;52.298;21.164;2022-08-20T08:16:31;26.50;1.00
18317;DHT22;9284;52.298;21.164;2022-08-20T08:19:04;26.40;1.00
18317;DHT22;9284;52.298;21.164;2022-08-20T08:21:33;27.10;99.90
18317;DHT22;9284;52.298;21.164;2022-08-20T08:24:02;27.90;99.90
18317;DHT22;9284;52.298;21.164;2022-08-20T08:26:30;28.60;99.90
18317;DHT22;9284;52.298;21.164;2022-08-20T08:28:58;29.30;99.90
18317;DHT22;9284;52.298;21.164;2022-08-20T08:31:26;29.10;99.90
18317;DHT22;9284;52.298;21.164;2022-08-20T08:33:56;28.30;99.90
18317;DHT22;9284;52.298;21.164;2022-08-20T08:36:24;28.20;99.90
18317;DHT22;9284;52.298;21.164;2022-08-20T08:38:53;28.50;99.90
18317;DHT22;9284;52.298;21.164;2022-08-20T08:41:27;28.60;99.90
18317;DHT22;9284;52.298;21.164;2022-08-20T08:44:03;28.30;99.90
18317;DHT22;9284;52.298;21.164;2022-08-20T08:46:37;28.70;99.90
18317;DHT22;9284;52.298;21.164;2022-08-20T08:49:10;29.10;99.90
18317;DHT22;9284;52.298;21.164;2022-08-20T08:51:41;28.80;99.90
18317;DHT22;9284;52.298;21.164;2022-08-20T08:54:14;28.80;99.90
18317;DHT22;9284;52.298;21.164;2022-08-20T08:56:43;28.50;99.90
18317;DHT22;9284;52.298;21.164;2022-08-20T08:59:17;28.40;99.90
18317;DHT22;9284;52.298;21.164;2022-08-20T09:01:48;27.90;99.90
18317;DHT22;9284;52.298;21.164;2022-08-20T09:04:27;27.80;99.90
18317;DHT22;9284;52.298;21.164;2022-08-20T09:06:58;27.70;1.00
18317;DHT22;9284;52.298;21.164;2022-08-20T09:09:30;27.60;1.00
18317;DHT22;9284;52.298;21.164;2022-08-20T09:12:03;27.50;1.00
18317;DHT22;9284;52.298;21.164;2022-08-20T09:14:32;27.60;1.00
18317;DHT22;9284;52.298;21.164;2022-08-20T09:17:02;28.10;1.00
18317;DHT22;9284;52.298;21.164;2022-08-20T09:19:31;28.50;99.90
18317;DHT22;9284;52.298;21.164;2022-08-20T09:22:06;28.80;99.90
18317;DHT22;9284;52.298;21.164;2022-08-20T09:24:35;28.70;99.90
18317;DHT22;9284;52.298;21.164;2022-08-20T09:27:04;28.60;99.90
18317;DHT22;9284;52.298;21.164;2022-08-20T09:29:34;28.50;99.90
18317;DHT22;9284;52.298;21.164;2022-08-20T09:32:05;28.50;99.90
18317;DHT22;9284;52.298;21.164;2022-08-20T09:34:37;28.50;99.90
18317;DHT22;9284;52.298;21.164;2022-08-20T09:37:06;28.80;99.90
18317;DHT22;9284;52.298;21.164;2022-08-20T09:39:34;29.30;99.90
18317;DHT22;9284;52.298;21.164;2022-08-20T09:42:08;29.50;59.90
18317;DHT22;9284;52.298;21.164;2022-08-20T09:44:36;29.60;28.50
18317;DHT22;9284;52.298;21.164;2022-08-20T09:47:05;29.70;89.10
18317;DHT22;9284;52.298;21.164;2022-08-20T09:49:33;29.90;72.90
18317;DHT22;9284;52.298;21.164;2022-08-20T09:52:06;30.00;69.10
18317;DHT22;9284;52.298;21.164;2022-08-20T09:54:36;29.90;41.10
18317;DHT22;9284;52.298;21.164;2022-08-20T09:57:13;29.50;1.00
18317;DHT22;9284;52.298;21.164;2022-08-20T09:59:42;29.40;2.70
18317;DHT22;9284;52.298;21.164;2022-08-20T10:02:11;29.30;3.50
18317;DHT22;9284;52.298;21.164;2022-08-20T10:04:39;29.20;17.20
18317;DHT22;9284;52.298;21.164;2022-08-20T10:07:09;29.00;28.70
18317;DHT22;9284;52.298;21.164;2022-08-20T10:09:41;28.90;30.60
18317;DHT22;9284;52.298;21.164;2022-08-20T10:12:09;29.20;28.60
18317;DHT22;9284;52.298;21.164;2022-08-20T10:14:38;29.30;57.90
18317;DHT22;9284;52.298;21.164;2022-08-20T10:17:06;29.40;12.60
18317;DHT22;9284;52.298;21.164;2022-08-20T10:19:35;29.50;1.00
18317;DHT22;9284;52.298;21.164;2022-08-20T10:22:03;29.80;7.70
18317;DHT22;9284;52.298;21.164;2022-08-20T10:24:33;30.00;1.00
18317;DHT22;9284;52.298;21.164;2022-08-20T10:27:02;30.10;1.00
18317;DHT22;9284;52.298;21.164;2022-08-20T10:29:30;30.20;1.00
18317;DHT22;9284;52.298;21.164;2022-08-20T10:32:07;30.20;1.00
18317;DHT22;9284;52.298;21.164;2022-08-20T10:34:38;30.10;1.00
18317;DHT22;9284;52.298;21.164;2022-08-20T10:37:06;30.30;1.00
18317;DHT22;9284;52.298;21.164;2022-08-20T10:39:36;30.10;1.00
18317;DHT22;9284;52.298;21.164;2022-08-20T10:42:05;30.00;1.00
18317;DHT22;9284;52.298;21.164;2022-08-20T10:44:33;29.90;1.00
18317;DHT22;9284;52.298;21.164;2022-08-20T10:47:13;29.80;1.00
18317;DHT22;9284;52.298;21.164;2022-08-20T10:49:41;30.10;1.00
18317;DHT22;9284;52.298;21.164;2022-08-20T10:52:09;30.30;1.00
18317;DHT22;9284;52.298;21.164;2022-08-20T10:54:39;30.50;1.00
18317;DHT22;9284;52.298;21.164;2022-08-20T10:57:09;30.40;1.00
18317;DHT22;9284;52.298;21.164;2022-08-20T10:59:41;30.80;1.00
18317;DHT22;9284;52.298;21.164;2022-08-20T11:02:09;31.30;1.00
18317;DHT22;9284;52.298;21.164;2022-08-20T11:04:37;31.60;1.00
18317;DHT22;9284;52.298;21.164;2022-08-20T11:07:20;31.30;1.00
18317;DHT22;9284;52.298;21.164;2022-08-20T11:10:10;31.40;1.00
18317;DHT22;9284;52.298;21.164;2022-08-20T11:12:40;31.40;1.00
18317;DHT22;9284;52.298;21.164;2022-08-20T11:15:13;31.60;1.00
18317;DHT22;9284;52.298;21.164;2022-08-20T11:17:43;31.40;1.00
18317;DHT22;9284;52.298;21.164;2022-08-20T11:20:13;31.40;1.00
18317;DHT22;9284;52.298;21.164;2022-08-20T11:22:42;31.60;1.00
18317;DHT22;9284;52.298;21.164;2022-08-20T11:25:12;31.40;1.00
18317;DHT22;9284;52.298;21.164;2022-08-20T11:27:42;31.30;1.00
18317;DHT22;9284;52.298;21.164;2022-08-20T11:30:13;31.30;1.00
18317;DHT22;9284;52.298;21.164;2022-08-20T11:32:42;31.40;1.00
18317;DHT22;9284;52.298;21.164;2022-08-20T11:35:10;31.70;1.00
18317;DHT22;9284;52.298;21.164;2022-08-20T11:38:00;31.50;1.00
18317;DHT22;9284;52.298;21.164;2022-08-20T11:40:30;31.20;1.00
18317;DHT22;9284;52.298;21.164;2022-08-20T11:42:58;31.20;1.00
18317;DHT22;9284;52.298;21.164;2022-08-20T11:45:45;31.30;1.00
18317;DHT22;9284;52.298;21.164;2022-08-20T11:48:14;31.40;1.00
18317;DHT22;9284;52.298;21.164;2022-08-20T11:50:44;31.20;1.00
18317;DHT22;9284;52.298;21.164;2022-08-20T11:53:12;31.10;1.00
18317;DHT22;9284;52.298;21.164;2022-08-20T11:55:42;31.00;1.00
18317;DHT22;9284;52.298;21.164;2022-08-20T11:58:11;30.90;1.00
18317;DHT22;9284;52.298;21.164;2022-08-20T12:00:39;30.80;1.00
18317;DHT22;9284;52.298;21.164;2022-08-20T12:03:08;30.60;1.00
18317;DHT22;9284;52.298;21.164;2022-08-20T12:05:39;30.70;1.00
18317;DHT22;9284;52.298;21.164;2022-08-20T12:08:08;30.90;1.00
18317;DHT22;9284;52.298;21.164;2022-08-20T12:10:55;31.00;1.00
18317;DHT22;9284;52.298;21.164;2022-08-20T12:13:24;30.80;1.00
18317;DHT22;9284;52.298;21.164;2022-08-20T12:16:12;30.90;1.00
18317;DHT22;9284;52.298;21.164;2022-08-20T12:18:41;30.80;1.00
18317;DHT22;9284;52.298;21.164;2022-08-20T12:21:09;30.80;1.00
18317;DHT22;9284;52.298;21.164;2022-08-20T12:23:37;30.80;1.00
18317;DHT22;9284;52.298;21.164;2022-08-20T12:26:07;30.70;1.00
18317;DHT22;9284;52.298;21.164;2022-08-20T12:28:35;30.90;1.00
18317;DHT22;9284;52.298;21.164;2022-08-20T12:31:03;30.80;1.00
18317;DHT22;9284;52.298;21.164;2022-08-20T12:33:31;30.60;1.00
18317;DHT22;9284;52.298;21.164;2022-08-20T12:36:00;30.60;1.00
18317;DHT22;9284;52.298;21.164;2022-08-20T12:38:28;30.60;1.00
18317;DHT22;9284;52.298;21.164;2022-08-20T12:40:56;30.60;1.00
18317;DHT22;9284;52.298;21.164;2022-08-20T12:43:26;30.50;1.00
18317;DHT22;9284;52.298;21.164;2022-08-20T12:45:54;30.50;1.00
18317;DHT22;9284;52.298;21.164;2022-08-20T12:48:22;30.40;1.00
18317;DHT22;9284;52.298;21.164;2022-08-20T12:50:50;30.50;1.00
18317;DHT22;9284;52.298;21.164;2022-08-20T12:53:19;30.60;1.00
18317;DHT22;9284;52.298;21.164;2022-08-20T12:55:47;30.70;1.00
18317;DHT22;9284;52.298;21.164;2022-08-20T12:58:15;30.80;1.00
18317;DHT22;9284;52.298;21.164;2022-08-20T13:00:46;30.80;1.00
18317;DHT22;9284;52.298;21.164;2022-08-20T13:03:17;30.80;1.00
18317;DHT22;9284;52.298;21.164;2022-08-20T13:05:46;30.80;1.00
18317;DHT22;9284;52.298;21.164;2022-08-20T13:08:14;31.00;1.00
18317;DHT22;9284;52.298;21.164;2022-08-20T13:10:43;30.90;1.00
18317;DHT22;9284;52.298;21.164;2022-08-20T13:13:13;30.90;1.00
18317;DHT22;9284;52.298;21.164;2022-08-20T13:15:49;30.90;1.00
18317;DHT22;9284;52.298;21.164;2022-08-20T13:18:17;31.00;1.00
18317;DHT22;9284;52.298;21.164;2022-08-20T13:20:46;30.80;1.00
18317;DHT22;9284;52.298;21.164;2022-08-20T13:23:15;30.80;1.00
18317;DHT22;9284;52.298;21.164;2022-08-20T13:25:44;30.80;1.00
18317;DHT22;9284;52.298;21.164;2022-08-20T13:28:12;30.60;1.00
18317;DHT22;9284;52.298;21.164;2022-08-20T13:30:40;30.70;1.00
18317;DHT22;9284;52.298;21.164;2022-08-20T13:33:09;30.50;1.00
18317;DHT22;9284;52.298;21.164;2022-08-20T13:35:38;30.40;1.00
18317;DHT22;9284;52.298;21.164;2022-08-20T13:38:06;30.50;1.00
18317;DHT22;9284;52.298;21.164;2022-08-20T13:40:34;30.50;1.00
18317;DHT22;9284;52.298;21.164;2022-08-20T13:43:02;30.40;1.00
18317;DHT22;9284;52.298;21.164;2022-08-20T13:45:33;30.20;1.00
18317;DHT22;9284;52.298;21.164;2022-08-20T13:48:02;30.30;1.00
18317;DHT22;9284;52.298;21.164;2022-08-20T13:50:36;30.30;1.00
18317;DHT22;9284;52.298;21.164;2022-08-20T13:53:04;30.40;1.00
18317;DHT22;9284;52.298;21.164;2022-08-20T13:55:33;30.40;1.00
18317;DHT22;9284;52.298;21.164;2022-08-20T13:58:04;30.10;1.00
18317;DHT22;9284;52.298;21.164;2022-08-20T14:00:34;30.20;1.00
18317;DHT22;9284;52.298;21.164;2022-08-20T14:03:04;30.10;1.00
18317;DHT22;9284;52.298;21.164;2022-08-20T14:05:32;30.00;1.00
18317;DHT22;9284;52.298;21.164;2022-08-20T14:08:07;30.10;1.00
18317;DHT22;9284;52.298;21.164;2022-08-20T14:10:37;30.20;1.00
18317;DHT22;9284;52.298;21.164;2022-08-20T14:13:08;30.30;1.00
18317;DHT22;9284;52.298;21.164;2022-08-20T14:15:42;30.30;1.00
18317;DHT22;9284;52.298;21.164;2022-08-20T14:18:11;30.10;1.00
18317;DHT22;9284;52.298;21.164;2022-08-20T14:20:41;30.00;1.00
18317;DHT22;9284;52.298;21.164;2022-08-20T14:23:14;30.10;1.00
18317;DHT22;9284;52.298;21.164;2022-08-20T14:25:44;30.10;1.00
18317;DHT22;9284;52.298;21.164;2022-08-20T14:28:15;30.00;1.00
18317;DHT22;9284;52.298;21.164;2022-08-20T14:30:45;29.90;1.00
18317;DHT22;9284;52.298;21.164;2022-08-20T14:33:19;29.90;1.00
18317;DHT22;9284;52.298;21.164;2022-08-20T14:35:47;29.90;1.00
18317;DHT22;9284;52.298;21.164;2022-08-20T14:38:17;29.90;1.00
18317;DHT22;9284;52.298;21.164;2022-08-20T14:40:45;29.90;1.00
18317;DHT22;9284;52.298;21.164;2022-08-20T14:43:16;30.00;1.00
18317;DHT22;9284;52.298;21.164;2022-08-20T14:45:44;30.10;1.00
18317;DHT22;9284;52.298;21.164;2022-08-20T14:48:12;30.00;1.00
18317;DHT22;9284;52.298;21.164;2022-08-20T14:50:40;29.90;1.00
18317;DHT22;9284;52.298;21.164;2022-08-20T14:53:08;29.80;1.00
18317;DHT22;9284;52.298;21.164;2022-08-20T14:55:38;29.90;1.00
18317;DHT22;9284;52.298;21.164;2022-08-20T14:58:07;29.80;1.00
18317;DHT22;9284;52.298;21.164;2022-08-20T15:00:36;29.90;1.00
18317;DHT22;9284;52.298;21.164;2022-08-20T15:03:04;29.80;1.00
18317;DHT22;9284;52.298;21.164;2022-08-20T15:05:33;29.70;1.00
18317;DHT22;9284;52.298;21.164;2022-08-20T15:08:06;29.70;1.00
18317;DHT22;9284;52.298;21.164;2022-08-20T15:10:38;29.50;1.00
18317;DHT22;9284;52.298;21.164;2022-08-20T15:13:06;29.40;1.00
18317;DHT22;9284;52.298;21.164;2022-08-20T15:15:34;29.10;1.00
18317;DHT22;9284;52.298;21.164;2022-08-20T15:18:03;29.20;1.00
18317;DHT22;9284;52.298;21.164;2022-08-20T15:20:33;29.10;1.00
18317;DHT22;9284;52.298;21.164;2022-08-20T15:23:02;28.90;1.00
18317;DHT22;9284;52.298;21.164;2022-08-20T15:25:33;28.80;1.00
18317;DHT22;9284;52.298;21.164;2022-08-20T15:28:06;28.80;1.00
18317;DHT22;9284;52.298;21.164;2022-08-20T15:30:36;28.70;1.00
18317;DHT22;9284;52.298;21.164;2022-08-20T15:33:04;28.80;1.00
18317;DHT22;9284;52.298;21.164;2022-08-20T15:35:32;28.70;1.00
18317;DHT22;9284;52.298;21.164;2022-08-20T15:38:00;28.70;1.00
18317;DHT22;9284;52.298;21.164;2022-08-20T15:40:31;28.60;1.00
18317;DHT22;9284;52.298;21.164;2022-08-20T15:43:00;28.60;1.00
18317;DHT22;9284;52.298;21.164;2022-08-20T15:45:31;28.50;1.00
18317;DHT22;9284;52.298;21.164;2022-08-20T15:48:06;28.40;1.00
18317;DHT22;9284;52.298;21.164;2022-08-20T15:50:49;28.40;1.00
18317;DHT22;9284;52.298;21.164;2022-08-20T15:53:24;28.40;1.00
18317;DHT22;9284;52.298;21.164;2022-08-20T15:56:03;28.30;1.00
18317;DHT22;9284;52.298;21.164;2022-08-20T15:58:44;28.30;1.00
18317;DHT22;9284;52.298;21.164;2022-08-20T16:01:23;28.20;1.00
18317;DHT22;9284;52.298;21.164;2022-08-20T16:04:21;28.20;1.00
18317;DHT22;9284;52.298;21.164;2022-08-20T16:06:59;28.10;1.00
18317;DHT22;9284;52.298;21.164;2022-08-20T16:09:37;28.00;1.00
18317;DHT22;9284;52.298;21.164;2022-08-20T16:12:08;28.00;1.00
18317;DHT22;9284;52.298;21.164;2022-08-20T16:14:40;28.00;1.00
18317;DHT22;9284;52.298;21.164;2022-08-20T16:17:14;27.90;1.00
18317;DHT22;9284;52.298;21.164;2022-08-20T16:19:50;27.90;1.00
18317;DHT22;9284;52.298;21.164;2022-08-20T16:22:19;27.80;1.00
18317;DHT22;9284;52.298;21.164;2022-08-20T16:24:48;27.80;1.00
18317;DHT22;9284;52.298;21.164;2022-08-20T16:27:26;27.70;1.00
18317;DHT22;9284;52.298;21.164;2022-08-20T16:30:03;27.50;1.00
18317;DHT22;9284;52.298;21.164;2022-08-20T16:32:39;27.50;1.00
18317;DHT22;9284;52.298;21.164;2022-08-20T16:35:30;27.40;1.00
18317;DHT22;9284;52.298;21.164;2022-08-20T16:38:05;27.40;7.00
18317;DHT22;9284;52.298;21.164;2022-08-20T16:40:39;27.30;51.70
18317;DHT22;9284;52.298;21.164;2022-08-20T16:43:18;27.20;99.90
18317;DHT22;9284;52.298;21.164;2022-08-20T16:45:52;27.10;99.90
18317;DHT22;9284;52.298;21.164;2022-08-20T16:48:31;27.00;99.90
18317;DHT22;9284;52.298;21.164;2022-08-20T16:51:02;26.90;99.90
18317;DHT22;9284;52.298;21.164;2022-08-20T16:53:32;26.90;99.90
18317;DHT22;9284;52.298;21.164;2022-08-20T16:56:02;26.80;99.90
18317;DHT22;9284;52.298;21.164;2022-08-20T16:58:31;26.80;99.90
18317;DHT22;9284;52.298;21.164;2022-08-20T17:01:08;26.70;99.90
18317;DHT22;9284;52.298;21.164;2022-08-20T17:03:47;26.60;1.00
18317;DHT22;9284;52.298;21.164;2022-08-20T17:06:23;26.50;1.00
18317;DHT22;9284;52.298;21.164;2022-08-20T17:08:52;26.40;1.00
18317;DHT22;9284;52.298;21.164;2022-08-20T17:11:23;26.30;18.70
18317;DHT22;9284;52.298;21.164;2022-08-20T17:14:03;26.20;1.00
18317;DHT22;9284;52.298;21.164;2022-08-20T17:16:33;26.00;99.90
18317;DHT22;9284;52.298;21.164;2022-08-20T17:19:19;25.90;99.90
18317;DHT22;9284;52.298;21.164;2022-08-20T17:21:53;25.90;1.00
18317;DHT22;9284;52.298;21.164;2022-08-20T17:24:24;25.70;1.00
18317;DHT22;9284;52.298;21.164;2022-08-20T17:26:57;25.60;1.00
18317;DHT22;9284;52.298;21.164;2022-08-20T17:29:29;25.50;1.00
18317;DHT22;9284;52.298;21.164;2022-08-20T17:31:59;25.50;1.00
18317;DHT22;9284;52.298;21.164;2022-08-20T17:34:31;25.40;99.90
18317;DHT22;9284;52.298;21.164;2022-08-20T17:37:18;25.30;99.90
18317;DHT22;9284;52.298;21.164;2022-08-20T17:39:48;25.00;1.00
18317;DHT22;9284;52.298;21.164;2022-08-20T17:42:22;25.10;1.00
18317;DHT22;9284;52.298;21.164;2022-08-20T17:44:53;24.90;99.90
18317;DHT22;9284;52.298;21.164;2022-08-20T17:47:32;24.80;99.90
18317;DHT22;9284;52.298;21.164;2022-08-20T17:50:10;24.70;1.00
18317;DHT22;9284;52.298;21.164;2022-08-20T17:52:44;24.60;1.00
18317;DHT22;9284;52.298;21.164;2022-08-20T17:55:14;24.40;1.00
18317;DHT22;9284;52.298;21.164;2022-08-20T17:57:44;24.40;99.90
18317;DHT22;9284;52.298;21.164;2022-08-20T18:00:16;24.30;1.00
18317;DHT22;9284;52.298;21.164;2022-08-20T18:02:50;24.20;99.90
18317;DHT22;9284;52.298;21.164;2022-08-20T18:05:21;24.10;99.90
18317;DHT22;9284;52.298;21.164;2022-08-20T18:08:03;24.00;1.00
18317;DHT22;9284;52.298;21.164;2022-08-20T18:10:40;23.80;1.00
18317;DHT22;9284;52.298;21.164;2022-08-20T18:13:13;23.90;1.00
18317;DHT22;9284;52.298;21.164;2022-08-20T18:15:48;23.80;99.90
18317;DHT22;9284;52.298;21.164;2022-08-20T18:18:24;23.70;99.90
18317;DHT22;9284;52.298;21.164;2022-08-20T18:21:19;23.70;1.00
18317;DHT22;9284;52.298;21.164;2022-08-20T18:23:52;23.60;29.10
18317;DHT22;9284;52.298;21.164;2022-08-20T18:26:26;23.60;1.00
18317;DHT22;9284;52.298;21.164;2022-08-20T18:29:00;23.50;11.70
18317;DHT22;9284;52.298;21.164;2022-08-20T18:31:42;23.50;1.00
18317;DHT22;9284;52.298;21.164;2022-08-20T18:34:16;23.40;99.90
18317;DHT22;9284;52.298;21.164;2022-08-20T18:36:57;23.40;99.90
18317;DHT22;9284;52.298;21.164;2022-08-20T18:39:28;23.40;20.20
18317;DHT22;9284;52.298;21.164;2022-08-20T18:42:00;23.30;99.90
18317;DHT22;9284;52.298;21.164;2022-08-20T18:44:37;23.30;1.00
18317;DHT22;9284;52.298;21.164;2022-08-20T18:50:03;23.20;39.90
18317;DHT22;9284;52.298;21.164;2022-08-20T18:52:46;23.20;1.00
18317;DHT22;9284;52.298;21.164;2022-08-20T18:55:30;23.20;1.00
18317;DHT22;9284;52.298;21.164;2022-08-20T18:58:00;23.10;99.90
18317;DHT22;9284;52.298;21.164;2022-08-20T19:00:39;23.10;1.00
18317;DHT22;9284;52.298;21.164;2022-08-20T19:03:18;23.10;1.00
18317;DHT22;9284;52.298;21.164;2022-08-20T19:06:07;23.10;1.00
18317;DHT22;9284;52.298;21.164;2022-08-20T19:08:46;23.00;81.70
18317;DHT22;9284;52.298;21.164;2022-08-20T19:11:28;23.00;21.90
18317;DHT22;9284;52.298;21.164;2022-08-20T19:14:12;23.00;21.50
18317;DHT22;9284;52.298;21.164;2022-08-20T19:16:47;22.90;99.90
18317;DHT22;9284;52.298;21.164;2022-08-20T19:19:19;22.80;99.90
18317;DHT22;9284;52.298;21.164;2022-08-20T19:21:53;22.80;99.90
18317;DHT22;9284;52.298;21.164;2022-08-20T19:24:29;22.80;99.90
18317;DHT22;9284;52.298;21.164;2022-08-20T19:27:02;22.70;99.90